Flight Track Log - Related Links

Times and Time Zones

All times are in EST time to prevent confusion due to time zone crossing. See the SWA232 flight status page for this flight to view local times or setup timezone preferences in your user account.

Time Position Orientation Groundspeed Altitude Reporting Facility
EST Latitude Longitude Course Direction KTS MPH feet Rate Location/Type
Tue 09:29:28 PM 39.1833 -76.7500 191° South 214 246 2,400  Level Potomac TRACON
Tue 09:30:28 PM 39.1167 -76.7667 191° South 281 323 6,000 2,300 Climbing Potomac TRACON
Tue 09:31:28 PM 39.1167 -76.6833 90° East 291 335 7,000 1,261 Climbing Potomac TRACON
Tue 09:33:24 PM 39.1267 -76.4958 86° East 300 345 9,700 1,466 Climbing Washington Center
Tue 09:34:24 PM 39.1381 -76.3783 83° East 312 359 11,300 1,884 Climbing Washington Center
Tue 09:35:25 PM 39.1492 -76.2447 84° East 343 395 13,500 2,350 Climbing Washington Center
Tue 09:36:24 PM 39.1667 -76.1028 81° East 377 434 16,000 2,319 Climbing Washington Center
Tue 09:37:24 PM 39.1836 -75.9558 81° East 396 456 18,100 2,231 Climbing Washington Center
Tue 09:38:25 PM 39.2383 -75.8194 63° Northeast 412 474 20,500 2,361 Climbing Washington Center
Tue 09:39:26 PM 39.3239 -75.7097 45° Northeast 406 467 22,900 1,916 Climbing Washington Center
Tue 09:40:24 PM 39.4136 -75.5969 44° Northeast 423 487 24,300 1,354 Climbing Washington Center
Tue 09:42:41 PM 39.6364 -75.3078 45° Northeast 473 544 27,300 1,371 Climbing New York Center
Tue 09:43:41 PM 39.7314 -75.1708 48° Northeast 488 562 28,800 1,100 Climbing New York Center
Tue 09:44:41 PM 39.8236 -75.0389 48° Northeast 494 568 29,500 850 Climbing New York Center
Tue 09:45:41 PM 39.9206 -74.8986 48° Northeast 506 582 30,500 950 Climbing New York Center
Tue 09:46:41 PM 40.0081 -74.7764 47° Northeast 511 588 31,400 1,250 Climbing New York Center
Tue 09:47:41 PM 40.1044 -74.6325 49° Northeast 517 595 33,000 800 Climbing New York Center
Tue 09:48:41 PM 40.1969 -74.4856 50° Northeast 517 595 33,000  Level New York Center
Tue 09:49:41 PM 40.2889 -74.3408 50° Northeast 517 595 33,000  Level New York Center
Tue 09:50:41 PM 40.3806 -74.1986 50° Northeast 512 589 33,000  Level New York Center
Tue 09:51:41 PM 40.4722 -74.0558 50° Northeast 512 589 33,000  Level New York Center
Tue 09:53:30 PM 40.6375 -73.8011 49° Northeast 509 586 33,000 -776 Level Boston Center
Tue 09:54:31 PM 40.7344 -73.6464 50° Northeast 513 590 30,800 -2,459 Descending Boston Center
Tue 09:55:32 PM 40.8186 -73.5089 51° Northeast 514 592 28,000 -1,900 Descending Boston Center
Tue 09:56:31 PM 40.9103 -73.3669 49° Northeast 509 586 27,000 -500 Descending Boston Center
Tue 09:57:32 PM 41.0056 -73.2272 48° Northeast 494 568 27,000 -390 Level Boston Center
Tue 09:58:34 PM 41.0981 -73.0878 49° Northeast 500 575 26,200 -1,574 Descending Boston Center
Tue 09:59:34 PM 41.1900 -72.9506 48° Northeast 501 577 23,800 -1,587 Descending Boston Center
Tue 10:00:35 PM 41.2544 -72.8161 57° Northeast 462 532 23,000 -397 Descending Boston Center
Tue 10:01:35 PM 41.3103 -72.6711 63° Northeast 444 511 23,000  Level Boston Center
Tue 10:02:39 PM 41.3592 -72.5336 65° Northeast 425 489 23,000 -48 Level Boston Center
Tue 10:03:39 PM 41.4119 -72.3925 63° Northeast 422 486 22,900 -1,041 Descending Boston Center
Tue 10:04:40 PM 41.4731 -72.2286 63° Northeast 413 475 20,900 -1,770 Descending Boston Center
Tue 10:05:41 PM 41.5203 -72.0969 64° Northeast 396 456 19,300 -1,672 Descending Boston Center
Tue 10:06:42 PM 41.5675 -71.9678 64° Northeast 383 441 17,500 -1,721 Descending Boston Center
Tue 10:07:43 PM 41.6047 -71.8397 69° East 371 427 15,800 -1,700 Descending Boston Center
Tue 10:08:42 PM 41.6419 -71.7136 68° East 366 421 14,100 -1,672 Descending Boston Center
Tue 10:09:45 PM 41.6811 -71.5831 68° East 358 412 12,400 -1,500 Descending Boston Center
Tue 10:10:46 PM 41.7133 -71.4689 69° East 339 390 11,000 -689 Descending Boston Center
Tue 10:11:47 PM 41.7547 -71.3581 63° Northeast 337 388 11,000 -298 Level Boston Center
Tue 10:12:47 PM 41.7931 -71.2478 65° Northeast 329 379 10,400 -545 Descending Boston Center
Tue 10:13:48 PM 41.8194 -71.1356 72° East 291 335 9,900 -197 Descending Boston Center
Tue 10:14:49 PM 41.8408 -71.0439 73° East 262 302 10,000 -443 Climbing Boston Center
Tue 10:15:50 PM 41.8617 -70.9539 73° East 255 293 9,000 -500 Descending Boston Center
Tue 10:16:49 PM 41.8831 -70.8667 72° East 249 287 9,000 -50 Level Boston Center
Tue 10:17:50 PM 41.9189 -70.7825 60° Northeast 256 295 8,900 -295 Descending Boston Center
Tue 10:18:51 PM 41.9625 -70.8231 325° Northwest 207 238 8,400 -893 Descending Boston Center
Tue 10:19:51 PM 41.9919 -70.8858 302° West 198 228 7,100 -1,103 Descending Boston Center
Tue 10:21:07 PM 42.0333 -70.9667 305° West 184 212 5,900 -1,103 Descending KA90
Tue 10:22:07 PM 42.0333 -71.0167 270° West 170 196 4,600 -1,350 Descending KA90
Tue 10:23:07 PM 42.0500 -71.0833 289° West 173 199 3,200 -789 Descending KA90
Tue 10:24:01 PM 42.0833 -71.1000 340° North 179 206 3,100 -50 Descending KA90
Tue 10:25:07 PM 42.1333 -71.1167 346° North 176 203 3,100  Level KA90
Tue 10:26:02 PM 42.1833 -71.1000 14° North 171 197 3,100 -52 Level KA90
Tue 10:27:02 PM 42.2167 -71.0667 37° Northeast 169 194 3,000 -524 Descending KA90
Tue 10:28:08 PM 42.2667 -71.0500 14° North 153 176 2,000 -762 Descending KA90
Tue 10:29:08 PM 42.3000 -71.0333 20° North 107 123 1,400 -600 Descending KA90
Tue 10:30:08 PM 42.3333 -71.0167 20° North 112 129 800 -600 Descending KA90

Login

Don't have an account? Register now (free) for customized features, flight alerts, and more!